createdAt,value
2022-12-24T00:01:37.873Z,9.30
2022-12-24T00:04:04.898Z,9.30
2022-12-24T00:06:31.654Z,9.30
2022-12-24T00:08:58.831Z,9.20
2022-12-24T00:11:25.511Z,9.30
2022-12-24T00:13:52.288Z,9.30
2022-12-24T00:16:19.108Z,9.30
2022-12-24T00:18:47.068Z,9.30
2022-12-24T00:21:15.240Z,9.40
2022-12-24T00:23:42.387Z,9.40
2022-12-24T00:26:09.101Z,9.40
2022-12-24T00:28:35.749Z,9.40
2022-12-24T00:31:10.523Z,9.50
2022-12-24T00:33:37.365Z,9.50
2022-12-24T00:36:04.242Z,9.50
2022-12-24T00:38:31.022Z,9.60
2022-12-24T00:41:01.865Z,9.60
2022-12-24T00:43:29.169Z,9.60
2022-12-24T00:45:57.096Z,9.60
2022-12-24T00:48:24.097Z,9.60
2022-12-24T00:50:50.947Z,9.60
2022-12-24T00:53:18.061Z,9.60
2022-12-24T00:55:44.898Z,9.60
2022-12-24T00:58:11.581Z,9.60
2022-12-24T01:00:38.336Z,9.50
2022-12-24T01:03:05.143Z,9.60
2022-12-24T01:05:32.033Z,9.50
2022-12-24T01:07:58.790Z,9.50
2022-12-24T01:10:25.975Z,9.50
2022-12-24T01:12:52.708Z,9.50
2022-12-24T01:15:19.496Z,9.50
2022-12-24T01:17:46.287Z,9.50
2022-12-24T01:20:15.262Z,9.50
2022-12-24T01:22:42.022Z,9.40
2022-12-24T01:25:09.044Z,9.40
2022-12-24T01:27:35.784Z,9.30
2022-12-24T01:30:02.517Z,9.30
2022-12-24T01:32:29.256Z,9.30
2022-12-24T01:34:56.048Z,9.30
2022-12-24T01:37:22.774Z,9.30
2022-12-24T01:39:49.456Z,9.30
2022-12-24T01:42:41.700Z,9.20
2022-12-24T01:45:46.217Z,9.20
2022-12-24T01:48:23.177Z,9.20
2022-12-24T01:50:51.496Z,9.10
2022-12-24T01:53:18.279Z,9.10
2022-12-24T01:55:45.646Z,9.10
2022-12-24T01:58:12.676Z,9.10
2022-12-24T02:00:39.435Z,9.10
2022-12-24T02:03:06.215Z,9.10
2022-12-24T02:05:45.049Z,9.10
2022-12-24T02:08:11.842Z,9.10
2022-12-24T02:10:38.648Z,9.20
2022-12-24T02:13:05.476Z,9.20
2022-12-24T02:15:44.502Z,9.20
2022-12-24T02:18:26.519Z,9.20
2022-12-24T02:21:17.343Z,9.20
2022-12-24T02:24:03.500Z,9.30
2022-12-24T02:26:48.591Z,9.30
2022-12-24T02:29:22.041Z,9.30
2022-12-24T02:31:58.219Z,9.20
2022-12-24T02:34:43.002Z,9.20
2022-12-24T02:37:35.225Z,9.20
2022-12-24T02:40:17.190Z,9.10
2022-12-24T02:42:46.593Z,9.10
2022-12-24T02:45:18.145Z,9.10
2022-12-24T02:47:45.056Z,9.10
2022-12-24T02:50:13.881Z,9.00
2022-12-24T02:52:42.623Z,9.00
2022-12-24T02:55:11.472Z,9.00
2022-12-24T02:57:56.949Z,9.00
2022-12-24T03:00:24.104Z,8.90
2022-12-24T03:03:12.652Z,8.90
2022-12-24T03:05:51.565Z,9.00
2022-12-24T03:08:44.277Z,9.00
2022-12-24T03:11:12.200Z,9.00
2022-12-24T03:13:39.408Z,9.00
2022-12-24T03:16:11.311Z,9.00
2022-12-24T03:18:39.127Z,9.00
2022-12-24T03:21:22.469Z,9.00
2022-12-24T03:23:49.250Z,9.00
2022-12-24T03:26:17.185Z,9.00
2022-12-24T03:28:43.927Z,8.90
2022-12-24T03:31:10.809Z,8.90
2022-12-24T03:33:37.801Z,8.90
2022-12-24T03:36:04.899Z,8.90
2022-12-24T03:38:31.620Z,8.90
2022-12-24T03:40:58.345Z,9.00
2022-12-24T03:43:25.259Z,9.00
2022-12-24T03:45:52.015Z,8.90
2022-12-24T03:48:18.763Z,8.90
2022-12-24T03:50:45.459Z,8.90
2022-12-24T03:53:12.127Z,8.90
2022-12-24T03:55:39.221Z,8.90
2022-12-24T03:58:06.038Z,8.90
2022-12-24T04:00:32.746Z,8.80
2022-12-24T04:02:59.451Z,8.90
2022-12-24T04:05:26.211Z,8.80
2022-12-24T04:07:52.883Z,8.80
2022-12-24T04:10:20.092Z,8.70
2022-12-24T04:12:46.809Z,8.70
2022-12-24T04:15:13.504Z,8.70
2022-12-24T04:17:40.184Z,8.70
2022-12-24T04:20:07.503Z,8.70
2022-12-24T04:22:34.218Z,8.70
2022-12-24T04:25:01.036Z,8.70
2022-12-24T04:27:30.623Z,8.70
2022-12-24T04:29:57.693Z,8.70
2022-12-24T04:32:26.132Z,8.70
2022-12-24T04:34:52.876Z,8.70
2022-12-24T04:37:19.631Z,8.70
2022-12-24T04:39:46.325Z,8.70
2022-12-24T04:42:13.175Z,8.70
2022-12-24T04:44:39.844Z,8.70
2022-12-24T04:47:06.527Z,8.70
2022-12-24T04:49:33.385Z,8.70
2022-12-24T04:52:00.037Z,8.70
2022-12-24T04:54:26.958Z,8.70
2022-12-24T04:56:53.763Z,8.70
2022-12-24T04:59:20.898Z,8.70
2022-12-24T05:01:47.735Z,8.70
2022-12-24T05:04:14.537Z,8.70
2022-12-24T05:06:41.474Z,8.60
2022-12-24T05:09:08.127Z,8.60
2022-12-24T05:11:34.783Z,8.60
2022-12-24T05:14:01.499Z,8.60
2022-12-24T05:16:28.219Z,8.60
2022-12-24T05:18:54.988Z,8.60
2022-12-24T05:21:23.015Z,8.60
2022-12-24T05:24:08.756Z,8.60
2022-12-24T05:26:42.618Z,8.60
2022-12-24T05:29:09.473Z,8.60
2022-12-24T05:31:36.613Z,8.60
2022-12-24T05:34:03.368Z,8.70
2022-12-24T05:36:30.189Z,8.70
2022-12-24T05:38:56.928Z,8.70
2022-12-24T05:41:23.757Z,8.70
2022-12-24T05:43:50.536Z,8.70
2022-12-24T05:46:18.983Z,8.70
2022-12-24T05:48:46.230Z,8.70
2022-12-24T05:51:13.423Z,8.70
2022-12-24T05:53:40.226Z,8.70
2022-12-24T05:56:11.049Z,8.70
2022-12-24T05:58:38.379Z,8.80
2022-12-24T06:01:05.609Z,8.70
2022-12-24T06:03:32.383Z,8.70
2022-12-24T06:06:10.024Z,8.60
2022-12-24T06:08:38.722Z,8.50
2022-12-24T06:11:07.339Z,8.50
2022-12-24T06:13:34.300Z,8.50
2022-12-24T06:16:02.137Z,8.40
2022-12-24T06:18:29.957Z,8.40
2022-12-24T06:20:57.407Z,8.30
2022-12-24T06:23:24.267Z,8.30
2022-12-24T06:25:51.178Z,8.20
2022-12-24T06:28:18.118Z,8.10
2022-12-24T06:30:48.799Z,8.10
2022-12-24T06:33:15.957Z,8.00
2022-12-24T06:35:43.041Z,7.90
2022-12-24T06:38:09.798Z,7.90
2022-12-24T06:40:38.497Z,7.90
2022-12-24T06:43:05.456Z,7.80
2022-12-24T06:45:32.252Z,7.80
2022-12-24T06:47:59.459Z,7.70
2022-12-24T06:50:26.314Z,7.70
2022-12-24T06:52:53.386Z,7.70
2022-12-24T06:55:20.086Z,7.60
2022-12-24T06:57:46.797Z,7.60
2022-12-24T07:00:14.016Z,7.50
2022-12-24T07:02:41.581Z,7.50
2022-12-24T07:05:10.469Z,7.50
2022-12-24T07:07:38.315Z,7.50
2022-12-24T07:10:05.551Z,7.50
2022-12-24T07:12:32.315Z,7.50
2022-12-24T07:14:59.022Z,7.50
2022-12-24T07:17:26.310Z,7.50
2022-12-24T07:19:53.270Z,7.40
2022-12-24T07:22:19.984Z,7.40
2022-12-24T07:24:46.728Z,7.40
2022-12-24T07:27:13.572Z,7.30
2022-12-24T07:29:41.354Z,7.20
2022-12-24T07:32:08.297Z,7.20
2022-12-24T07:34:35.166Z,7.10
2022-12-24T07:37:02.054Z,7.10
2022-12-24T07:39:29.947Z,7.00
2022-12-24T07:41:56.634Z,7.00
2022-12-24T07:44:23.373Z,7.00
2022-12-24T07:46:50.617Z,7.00
2022-12-24T07:49:17.521Z,7.00
2022-12-24T07:51:44.285Z,7.00
2022-12-24T07:54:11.416Z,7.00
2022-12-24T07:56:38.146Z,7.00
2022-12-24T07:59:04.861Z,7.00
2022-12-24T08:01:31.654Z,6.90
2022-12-24T08:03:58.882Z,6.90
2022-12-24T08:06:25.659Z,6.90
2022-12-24T08:08:52.363Z,6.90
2022-12-24T08:11:19.060Z,6.90
2022-12-24T08:13:45.737Z,6.90
2022-12-24T08:16:12.701Z,6.90
2022-12-24T08:18:39.991Z,6.90
2022-12-24T08:21:09.970Z,6.80
2022-12-24T08:23:37.052Z,6.80
2022-12-24T08:26:03.920Z,6.80
2022-12-24T08:28:30.806Z,6.80
2022-12-24T08:30:57.561Z,6.80
2022-12-24T08:33:24.280Z,6.80
2022-12-24T08:35:55.220Z,6.80
2022-12-24T08:38:22.010Z,6.80
2022-12-24T08:40:50.186Z,6.80
2022-12-24T08:43:17.677Z,6.90
2022-12-24T08:45:44.517Z,6.90
2022-12-24T08:48:11.507Z,7.00
2022-12-24T08:50:41.643Z,7.00
2022-12-24T08:53:09.080Z,7.00
2022-12-24T08:55:35.788Z,7.00
2022-12-24T08:58:02.640Z,7.10
2022-12-24T09:00:31.217Z,7.00
2022-12-24T09:02:58.143Z,7.00
2022-12-24T09:05:26.112Z,7.00
2022-12-24T09:07:52.985Z,7.00
2022-12-24T09:10:20.268Z,6.90
2022-12-24T09:12:47.372Z,6.90
2022-12-24T09:15:14.386Z,6.90
2022-12-24T09:17:41.348Z,6.90
2022-12-24T09:20:08.745Z,6.90
2022-12-24T09:22:39.393Z,7.00
2022-12-24T09:25:06.818Z,7.10
2022-12-24T09:27:35.830Z,7.20
2022-12-24T09:30:02.781Z,7.20
2022-12-24T09:32:29.824Z,7.20
2022-12-24T09:34:56.940Z,7.30
2022-12-24T09:37:23.926Z,7.30
2022-12-24T09:39:51.285Z,7.30
2022-12-24T09:42:40.622Z,7.40
2022-12-24T09:45:36.585Z,7.40
2022-12-24T09:48:14.556Z,7.50
2022-12-24T09:50:52.054Z,7.70
2022-12-24T09:53:47.912Z,7.70
2022-12-24T09:56:19.302Z,7.80
2022-12-24T09:58:51.235Z,7.90
2022-12-24T10:01:18.182Z,8.00
2022-12-24T10:03:45.014Z,8.00
2022-12-24T10:06:16.152Z,8.10
2022-12-24T10:08:57.968Z,8.20
2022-12-24T10:11:53.868Z,8.30
2022-12-24T10:14:48.113Z,8.30
2022-12-24T10:17:31.389Z,8.40
2022-12-24T10:19:58.060Z,8.40
2022-12-24T10:22:58.539Z,8.50
2022-12-24T10:25:37.835Z,8.50
2022-12-24T10:28:08.914Z,8.60
2022-12-24T10:30:35.682Z,8.60
2022-12-24T10:33:02.394Z,8.60
2022-12-24T10:35:37.586Z,8.70
2022-12-24T10:38:04.500Z,8.70
2022-12-24T10:40:45.092Z,8.80
2022-12-24T10:43:19.616Z,8.90
2022-12-24T10:46:03.675Z,8.90
2022-12-24T10:48:50.322Z,9.00
2022-12-24T10:51:24.460Z,9.10
2022-12-24T10:54:06.868Z,9.10
2022-12-24T10:56:42.173Z,9.10
2022-12-24T10:59:43.182Z,9.20
2022-12-24T11:02:32.381Z,9.30
2022-12-24T11:05:00.261Z,9.40
2022-12-24T11:07:27.611Z,9.40
2022-12-24T11:10:14.679Z,9.50
2022-12-24T11:13:00.292Z,9.50
2022-12-24T11:15:34.643Z,9.60
2022-12-24T11:18:04.839Z,9.60
2022-12-24T11:20:34.715Z,9.70
2022-12-24T11:23:02.272Z,9.70
2022-12-24T11:25:31.649Z,9.80
2022-12-24T11:28:19.518Z,9.90
2022-12-24T11:31:26.807Z,9.90
2022-12-24T11:33:53.520Z,10.00
2022-12-24T11:36:21.874Z,10.00
2022-12-24T11:38:57.983Z,10.10
2022-12-24T11:41:25.282Z,10.20
2022-12-24T11:44:03.513Z,10.20
2022-12-24T11:46:46.283Z,10.30
2022-12-24T11:49:17.508Z,10.40
2022-12-24T11:52:10.077Z,10.50
2022-12-24T11:55:17.098Z,10.60
2022-12-24T11:57:50.625Z,10.60
2022-12-24T12:00:17.762Z,10.70
2022-12-24T12:02:45.222Z,10.80
2022-12-24T12:05:20.389Z,10.80
2022-12-24T12:07:48.598Z,10.80
2022-12-24T12:10:22.857Z,10.90
2022-12-24T12:13:15.909Z,11.00
2022-12-24T12:16:03.929Z,11.00
2022-12-24T12:18:36.919Z,11.10
2022-12-24T12:21:25.225Z,11.10
2022-12-24T12:23:54.841Z,11.10
2022-12-24T12:26:26.684Z,11.20
2022-12-24T12:29:01.884Z,11.20
2022-12-24T12:31:47.827Z,11.30
2022-12-24T12:34:32.598Z,11.30
2022-12-24T12:37:11.139Z,11.30
2022-12-24T12:39:41.200Z,11.40
2022-12-24T12:42:31.325Z,11.40
2022-12-24T12:45:04.116Z,11.40
2022-12-24T12:48:01.578Z,11.40
2022-12-24T12:50:44.820Z,11.40
2022-12-24T12:53:32.743Z,11.40
2022-12-24T12:56:07.022Z,11.40
2022-12-24T12:58:49.869Z,11.40
2022-12-24T13:01:41.674Z,11.50
2022-12-24T13:04:15.149Z,11.50
2022-12-24T13:06:52.567Z,11.60
2022-12-24T13:09:40.625Z,11.60
2022-12-24T13:12:25.406Z,11.60
2022-12-24T13:15:14.032Z,11.60
2022-12-24T13:18:07.324Z,11.60
2022-12-24T13:20:36.890Z,11.60
2022-12-24T13:23:12.685Z,11.50
2022-12-24T13:25:41.624Z,11.60
2022-12-24T13:28:23.487Z,11.60
2022-12-24T13:30:50.283Z,11.60
2022-12-24T13:33:37.196Z,11.50
2022-12-24T13:36:07.687Z,11.60
2022-12-24T13:38:53.858Z,11.60
2022-12-24T13:41:41.423Z,11.60
2022-12-24T13:44:14.828Z,11.60
2022-12-24T13:47:00.806Z,11.60
2022-12-24T13:49:38.569Z,11.60
2022-12-24T13:52:18.849Z,11.60
2022-12-24T13:55:02.620Z,11.50
2022-12-24T13:57:52.442Z,11.50
2022-12-24T14:00:22.494Z,11.50
2022-12-24T14:03:09.594Z,11.50
2022-12-24T14:05:49.339Z,11.50
2022-12-24T14:08:26.029Z,11.40
2022-12-24T14:11:34.555Z,11.40
2022-12-24T14:14:04.648Z,11.40
2022-12-24T14:16:32.475Z,11.40
2022-12-24T14:18:59.456Z,11.40
2022-12-24T14:21:35.233Z,11.40
2022-12-24T14:24:04.071Z,11.40
2022-12-24T14:26:34.803Z,11.30
2022-12-24T14:29:08.473Z,11.40
2022-12-24T14:31:38.347Z,11.40
2022-12-24T14:34:12.768Z,11.40
2022-12-24T14:36:40.560Z,11.40
2022-12-24T14:39:08.340Z,11.40
2022-12-24T14:41:51.751Z,11.40
2022-12-24T14:44:24.225Z,11.40
2022-12-24T14:46:56.474Z,11.30
2022-12-24T14:49:38.805Z,11.30
2022-12-24T14:52:54.533Z,11.30
2022-12-24T14:55:31.772Z,11.20
2022-12-24T14:58:36.441Z,11.20
2022-12-24T15:01:18.607Z,11.20
2022-12-24T15:03:45.572Z,11.20
2022-12-24T15:06:12.938Z,11.20
2022-12-24T15:08:44.201Z,11.10
2022-12-24T15:11:21.110Z,11.00
2022-12-24T15:13:55.847Z,11.00
2022-12-24T15:16:41.393Z,11.00
2022-12-24T15:19:15.688Z,10.90
2022-12-24T15:21:42.628Z,10.90
2022-12-24T15:24:32.356Z,10.90
2022-12-24T15:27:00.031Z,10.80
2022-12-24T15:29:43.364Z,10.70
2022-12-24T15:32:14.832Z,10.70
2022-12-24T15:34:45.980Z,10.60
2022-12-24T15:37:24.087Z,10.60
2022-12-24T15:40:26.806Z,10.50
2022-12-24T15:42:53.767Z,10.50
2022-12-24T15:45:28.890Z,10.40
2022-12-24T15:48:00.688Z,10.30
2022-12-24T15:50:56.851Z,10.30
2022-12-24T15:53:30.738Z,10.30
2022-12-24T15:56:14.331Z,10.30
2022-12-24T15:58:41.564Z,10.20
2022-12-24T16:01:15.517Z,10.20
2022-12-24T16:03:51.665Z,10.10
2022-12-24T16:06:18.828Z,10.10
2022-12-24T16:08:50.015Z,10.10
2022-12-24T16:11:35.287Z,10.00
2022-12-24T16:14:17.189Z,10.00
2022-12-24T16:16:46.654Z,10.00
2022-12-24T16:19:39.470Z,10.00
2022-12-24T16:22:25.488Z,9.90
2022-12-24T16:24:52.687Z,9.90
2022-12-24T16:27:19.746Z,9.90
2022-12-24T16:29:47.066Z,9.80
2022-12-24T16:32:33.469Z,9.80
2022-12-24T16:35:00.816Z,9.70
2022-12-24T16:37:28.413Z,9.70
2022-12-24T16:39:55.296Z,9.70
2022-12-24T16:42:40.435Z,9.70
2022-12-24T16:45:07.837Z,9.70
2022-12-24T16:47:42.087Z,9.70
2022-12-24T16:50:14.619Z,9.70
2022-12-24T16:52:41.479Z,9.70
2022-12-24T16:55:09.187Z,9.70
2022-12-24T16:57:35.990Z,9.80
2022-12-24T17:00:20.469Z,9.80
2022-12-24T17:02:47.869Z,9.80
2022-12-24T17:05:14.962Z,9.90
2022-12-24T17:07:43.900Z,9.90
2022-12-24T17:10:12.292Z,10.00
2022-12-24T17:12:41.456Z,10.10
2022-12-24T17:15:08.686Z,10.10
2022-12-24T17:17:35.506Z,10.10
2022-12-24T17:20:03.199Z,10.10
2022-12-24T17:22:29.937Z,10.20
2022-12-24T17:24:56.687Z,10.20
2022-12-24T17:27:23.579Z,10.20
2022-12-24T17:29:50.446Z,10.20
2022-12-24T17:32:17.180Z,10.30
2022-12-24T17:34:43.887Z,10.30
2022-12-24T17:37:10.643Z,10.30
2022-12-24T17:39:37.385Z,10.30
2022-12-24T17:42:04.339Z,10.30
2022-12-24T17:44:31.107Z,10.30
2022-12-24T17:46:57.881Z,10.30
2022-12-24T17:49:24.832Z,10.30
2022-12-24T17:51:51.495Z,10.30
2022-12-24T17:54:18.165Z,10.40
2022-12-24T17:56:44.939Z,10.40
2022-12-24T17:59:11.702Z,10.50
2022-12-24T18:01:42.727Z,10.50
2022-12-24T18:04:10.573Z,10.50
2022-12-24T18:06:42.895Z,10.60
2022-12-24T18:09:12.407Z,10.60
2022-12-24T18:11:39.282Z,10.60
2022-12-24T18:14:06.198Z,10.60
2022-12-24T18:16:37.392Z,10.60
2022-12-24T18:19:04.913Z,10.60
2022-12-24T18:21:32.069Z,10.70
2022-12-24T18:23:58.906Z,10.70
2022-12-24T18:26:26.854Z,10.80
2022-12-24T18:28:54.804Z,10.80
2022-12-24T18:31:22.262Z,10.90
2022-12-24T18:33:49.571Z,10.90
2022-12-24T18:36:16.476Z,11.00
2022-12-24T18:38:43.302Z,11.00
2022-12-24T18:41:12.048Z,11.00
2022-12-24T18:43:39.003Z,11.00
2022-12-24T18:46:25.838Z,11.00
2022-12-24T18:48:52.920Z,10.90
2022-12-24T18:51:22.321Z,10.80
2022-12-24T18:53:49.488Z,10.80
2022-12-24T18:56:18.691Z,10.80
2022-12-24T18:58:45.876Z,10.70
2022-12-24T19:01:16.839Z,10.70
2022-12-24T19:03:43.878Z,10.60
2022-12-24T19:06:11.133Z,10.70
2022-12-24T19:11:25.012Z,10.70
2022-12-24T19:13:53.190Z,10.80
2022-12-24T19:16:20.298Z,10.80
2022-12-24T19:18:47.361Z,10.90
2022-12-24T19:21:15.214Z,10.90
2022-12-24T19:23:42.015Z,10.90
2022-12-24T19:26:10.079Z,10.90
2022-12-24T19:28:36.873Z,10.90
2022-12-24T19:31:08.137Z,10.90
2022-12-24T19:33:42.422Z,10.90
2022-12-24T19:36:14.321Z,10.90
2022-12-24T19:38:41.156Z,11.00
2022-12-24T19:41:15.251Z,11.00
2022-12-24T19:43:45.656Z,11.00
2022-12-24T19:46:14.641Z,11.00
2022-12-24T19:48:41.706Z,11.00
2022-12-24T19:51:10.851Z,11.00
2022-12-24T19:53:39.158Z,11.00
2022-12-24T19:56:10.711Z,11.00
2022-12-24T19:58:37.749Z,11.00
2022-12-24T20:01:14.712Z,11.00
2022-12-24T20:03:42.682Z,11.10
2022-12-24T20:06:09.453Z,11.10
2022-12-24T20:08:36.963Z,11.10
2022-12-24T20:11:08.398Z,11.10
2022-12-24T20:13:35.478Z,11.10
2022-12-24T20:16:19.374Z,11.10
2022-12-24T20:18:56.697Z,11.00
2022-12-24T20:21:23.798Z,11.00
2022-12-24T20:23:50.752Z,11.00
2022-12-24T20:26:18.477Z,11.00
2022-12-24T20:28:45.540Z,11.00
2022-12-24T20:31:13.886Z,11.00
2022-12-24T20:33:41.766Z,11.00
2022-12-24T20:36:08.810Z,11.00
2022-12-24T20:38:35.977Z,10.90
2022-12-24T20:41:02.751Z,10.90
2022-12-24T20:43:35.289Z,10.90
2022-12-24T20:46:04.359Z,10.80
2022-12-24T20:48:31.766Z,10.80
2022-12-24T20:50:58.988Z,10.80
2022-12-24T20:53:26.682Z,10.80
2022-12-24T20:55:53.875Z,10.80
2022-12-24T20:58:21.096Z,10.80
2022-12-24T21:00:48.398Z,10.80
2022-12-24T21:03:15.975Z,10.90
2022-12-24T21:05:43.082Z,10.90
2022-12-24T21:08:10.317Z,10.90
2022-12-24T21:10:37.832Z,10.90
2022-12-24T21:13:04.669Z,10.90
2022-12-24T21:15:33.487Z,10.90
2022-12-24T21:18:00.561Z,10.90
2022-12-24T21:20:31.168Z,10.90
2022-12-24T21:23:01.159Z,11.00
2022-12-24T21:25:28.346Z,11.00
2022-12-24T21:27:55.601Z,11.00
2022-12-24T21:30:22.627Z,11.00
2022-12-24T21:32:49.405Z,11.00
2022-12-24T21:35:16.201Z,11.10
2022-12-24T21:37:42.995Z,11.10
2022-12-24T21:40:10.427Z,11.10
2022-12-24T21:42:37.209Z,11.10
2022-12-24T21:45:07.667Z,11.10
2022-12-24T21:47:35.545Z,11.10
2022-12-24T21:50:21.585Z,11.10
2022-12-24T21:52:49.084Z,11.10
2022-12-24T21:55:15.821Z,11.10
2022-12-24T21:57:55.013Z,11.20
2022-12-24T22:00:22.344Z,11.20
2022-12-24T22:02:53.820Z,11.20
2022-12-24T22:05:20.891Z,11.20
2022-12-24T22:08:06.235Z,11.20
2022-12-24T22:10:51.624Z,11.20
2022-12-24T22:13:18.515Z,11.20
2022-12-24T22:15:48.110Z,11.10
2022-12-24T22:18:15.957Z,11.20
2022-12-24T22:20:43.724Z,11.20
2022-12-24T22:23:10.637Z,11.10
2022-12-24T22:25:37.532Z,11.10
2022-12-24T22:28:04.416Z,11.20
2022-12-24T22:30:31.249Z,11.20
2022-12-24T22:32:58.468Z,11.10
2022-12-24T22:35:25.247Z,11.20
2022-12-24T22:37:56.018Z,11.20
2022-12-24T22:40:27.996Z,11.20
2022-12-24T22:42:54.898Z,11.20
2022-12-24T22:45:22.670Z,11.20
2022-12-24T22:47:49.932Z,11.20
2022-12-24T22:50:16.973Z,11.20
2022-12-24T22:52:43.827Z,11.20
2022-12-24T22:55:10.571Z,11.20
2022-12-24T22:57:37.253Z,11.20
2022-12-24T23:00:12.932Z,11.30
2022-12-24T23:02:39.769Z,11.30
2022-12-24T23:05:07.012Z,11.30
2022-12-24T23:07:33.762Z,11.40
2022-12-24T23:10:00.514Z,11.40
2022-12-24T23:12:45.849Z,11.40
2022-12-24T23:15:13.589Z,11.40
2022-12-24T23:17:40.332Z,11.40
2022-12-24T23:20:07.625Z,11.40
2022-12-24T23:22:34.264Z,11.40
2022-12-24T23:25:01.381Z,11.40
2022-12-24T23:27:28.075Z,11.40
2022-12-24T23:29:55.252Z,11.40
2022-12-24T23:32:23.407Z,11.40
2022-12-24T23:34:50.148Z,11.40
2022-12-24T23:37:16.890Z,11.30
2022-12-24T23:39:43.761Z,11.30
2022-12-24T23:42:10.464Z,11.30
2022-12-24T23:44:37.236Z,11.40
2022-12-24T23:47:04.198Z,11.40
2022-12-24T23:49:31.069Z,11.30
2022-12-24T23:51:58.115Z,11.30
2022-12-24T23:54:24.850Z,11.30
2022-12-24T23:56:51.555Z,11.20
2022-12-24T23:59:18.228Z,11.20
